Terminal Aerodrome Forecast
Issued by NWS

Home | Current Version | Previous Version | Text Only | Print | Product List | Glossary On
Versions: 1 2 3 4 5 6 7 8 9 10 11 12 13 14 15 16 17 18 19 20 21 22 23 24 25 26 27 28
000
FTUS42 KCAE 231137
TAFCUB
TAF
KCUB 231137Z 2312/2412 10008KT 6SM -RA SCT012 OVC026 WS015/12045KT
     FM231500 10010G15KT 3SM -RA BR OVC012
      TEMPO 2315/2319 2SM SHRA BKN007
     FM232300 09010G15KT 4SM -RA BR OVC007=

USA.gov is the U.S. government's official web portal to all federal, state and local government web resources and services.